createdAt,value
2023-02-04T00:00:17.011Z,8.64
2023-02-04T00:02:46.057Z,8.61
2023-02-04T00:05:14.610Z,8.61
2023-02-04T00:07:42.198Z,8.56
2023-02-04T00:10:12.209Z,8.61
2023-02-04T00:12:39.974Z,8.50
2023-02-04T00:15:08.519Z,8.48
2023-02-04T00:17:36.399Z,8.38
2023-02-04T00:20:05.965Z,8.35
2023-02-04T00:22:33.723Z,8.36
2023-02-04T00:25:01.348Z,8.23
2023-02-04T00:27:28.915Z,8.23
2023-02-04T00:29:57.496Z,8.23
2023-02-04T00:32:25.259Z,8.24
2023-02-04T00:34:55.439Z,8.13
2023-02-04T00:37:24.461Z,8.06
2023-02-04T00:39:52.135Z,8.05
2023-02-04T00:42:20.036Z,8.03
2023-02-04T00:44:47.732Z,8.08
2023-02-04T00:47:15.340Z,8.09
2023-02-04T00:49:43.209Z,8.07
2023-02-04T00:52:10.885Z,8.13
2023-02-04T00:54:39.813Z,8.10
2023-02-04T00:57:07.707Z,8.05
2023-02-04T00:59:35.426Z,8.07
2023-02-04T01:02:05.306Z,8.05
2023-02-04T01:04:32.996Z,8.11
2023-02-04T01:07:00.970Z,8.20
2023-02-04T01:09:28.662Z,8.24
2023-02-04T01:11:58.637Z,8.22
2023-02-04T01:14:26.729Z,8.27
2023-02-04T01:16:54.600Z,8.21
2023-02-04T01:19:22.272Z,8.22
2023-02-04T01:21:52.217Z,8.18
2023-02-04T01:24:21.975Z,8.20
2023-02-04T01:26:49.718Z,8.26
2023-02-04T01:29:18.787Z,8.33
2023-02-04T01:31:53.748Z,8.30
2023-02-04T01:34:23.545Z,8.39
2023-02-04T01:36:51.181Z,8.31
2023-02-04T01:39:20.104Z,8.27
2023-02-04T01:41:47.763Z,8.25
2023-02-04T01:44:19.780Z,8.39
2023-02-04T01:46:52.744Z,8.34
2023-02-04T01:49:22.660Z,8.24
2023-02-04T01:51:58.929Z,8.15
2023-02-04T01:54:28.606Z,8.15
2023-02-04T01:56:56.796Z,8.08
2023-02-04T01:59:27.017Z,8.13
2023-02-04T02:01:58.377Z,8.20
2023-02-04T02:04:33.133Z,8.05
2023-02-04T02:07:05.184Z,8.13
2023-02-04T02:09:37.685Z,8.06
2023-02-04T02:12:06.167Z,8.07
2023-02-04T02:14:34.480Z,8.15
2023-02-04T02:17:15.362Z,8.12
2023-02-04T02:19:44.490Z,8.15
2023-02-04T02:22:23.348Z,8.05
2023-02-04T02:24:58.328Z,7.92
2023-02-04T02:27:26.257Z,7.79
2023-02-04T02:29:54.112Z,7.67
2023-02-04T02:32:22.895Z,7.51
2023-02-04T02:34:50.705Z,7.44
2023-02-04T02:37:18.371Z,7.46
2023-02-04T02:39:46.902Z,7.44
2023-02-04T02:42:19.891Z,7.30
2023-02-04T02:44:49.603Z,7.37
2023-02-04T02:47:19.523Z,7.43
2023-02-04T02:49:49.884Z,7.46
2023-02-04T02:52:18.491Z,7.64
2023-02-04T02:54:48.470Z,7.64
2023-02-04T02:57:23.716Z,7.70
2023-02-04T02:59:51.465Z,7.67
2023-02-04T03:02:26.134Z,7.59
2023-02-04T03:05:00.820Z,7.62
2023-02-04T03:07:29.214Z,7.58
2023-02-04T03:09:56.931Z,7.67
2023-02-04T03:12:26.072Z,7.59
2023-02-04T03:14:54.026Z,7.58
2023-02-04T03:17:22.739Z,7.59
2023-02-04T03:19:50.854Z,7.54
2023-02-04T03:22:18.953Z,7.65
2023-02-04T03:27:16.411Z,7.56
2023-02-04T03:29:49.688Z,7.61
2023-02-04T03:32:17.932Z,7.58
2023-02-04T03:34:47.069Z,7.45
2023-02-04T03:37:15.427Z,7.46
2023-02-04T03:39:43.247Z,7.52
2023-02-04T03:42:10.832Z,7.51
2023-02-04T03:44:38.509Z,7.50
2023-02-04T03:47:07.618Z,7.50
2023-02-04T03:49:35.831Z,7.52
2023-02-04T03:52:04.077Z,7.43
2023-02-04T03:54:33.080Z,7.39
2023-02-04T03:57:00.744Z,7.43
2023-02-04T03:59:28.385Z,7.31
2023-02-04T04:01:56.098Z,7.32
2023-02-04T04:04:25.655Z,7.38
2023-02-04T04:06:53.228Z,7.37
2023-02-04T04:09:20.832Z,7.43
2023-02-04T04:11:48.438Z,7.51
2023-02-04T04:14:16.046Z,7.39
2023-02-04T04:16:43.709Z,7.36
2023-02-04T04:19:11.349Z,7.40
2023-02-04T04:21:40.526Z,7.47
2023-02-04T04:24:08.396Z,7.42
2023-02-04T04:26:36.282Z,7.43
2023-02-04T04:29:03.895Z,7.50
2023-02-04T04:31:33.255Z,7.41
2023-02-04T04:34:02.014Z,7.28
2023-02-04T04:36:29.660Z,7.20
2023-02-04T04:38:59.695Z,7.27
2023-02-04T04:41:27.460Z,7.27
2023-02-04T04:43:57.430Z,7.37
2023-02-04T04:46:25.068Z,7.34
2023-02-04T04:48:52.718Z,7.25
2023-02-04T04:51:20.333Z,7.28
2023-02-04T04:53:48.892Z,7.22
2023-02-04T04:56:19.024Z,7.15
2023-02-04T04:58:46.599Z,7.08
2023-02-04T05:01:14.167Z,7.15
2023-02-04T05:03:41.825Z,7.00
2023-02-04T05:06:10.870Z,7.13
2023-02-04T05:08:38.461Z,7.05
2023-02-04T05:11:06.369Z,7.04
2023-02-04T05:13:35.246Z,7.08
2023-02-04T05:16:02.879Z,6.92
2023-02-04T05:18:30.463Z,6.95
2023-02-04T05:20:58.051Z,6.96
2023-02-04T05:23:25.987Z,6.91
2023-02-04T05:25:53.597Z,6.93
2023-02-04T05:28:21.499Z,6.95
2023-02-04T05:30:50.425Z,6.84
2023-02-04T05:33:19.079Z,6.89
2023-02-04T05:35:47.646Z,6.99
2023-02-04T05:38:16.667Z,7.01
2023-02-04T05:40:44.214Z,7.07
2023-02-04T05:43:12.175Z,7.10
2023-02-04T05:45:39.847Z,7.07
2023-02-04T05:48:09.043Z,7.10
2023-02-04T05:50:36.691Z,7.20
2023-02-04T05:53:04.551Z,7.31
2023-02-04T05:55:32.120Z,7.25
2023-02-04T05:57:59.715Z,7.27
2023-02-04T06:00:27.956Z,7.32
2023-02-04T06:02:55.571Z,7.30
2023-02-04T06:05:24.548Z,7.28
2023-02-04T06:07:52.271Z,7.32
2023-02-04T06:10:21.136Z,7.20
2023-02-04T06:12:48.967Z,7.19
2023-02-04T06:15:16.874Z,7.28
2023-02-04T06:17:44.575Z,7.25
2023-02-04T06:20:14.774Z,7.25
2023-02-04T06:22:43.752Z,7.21
2023-02-04T06:25:11.446Z,7.31
2023-02-04T06:27:39.124Z,7.16
2023-02-04T06:30:07.639Z,7.05
2023-02-04T06:32:35.248Z,6.94
2023-02-04T06:35:03.103Z,6.95
2023-02-04T06:37:31.858Z,6.98
2023-02-04T06:40:01.036Z,6.85
2023-02-04T06:42:28.600Z,6.87
2023-02-04T06:44:57.255Z,6.94
2023-02-04T06:47:24.846Z,7.08
2023-02-04T06:49:52.556Z,7.07
2023-02-04T06:52:20.211Z,7.08
2023-02-04T06:54:52.573Z,7.21
2023-02-04T06:57:24.027Z,7.14
2023-02-04T06:59:51.648Z,7.16
2023-02-04T07:02:19.203Z,7.08
2023-02-04T07:04:47.846Z,7.10
2023-02-04T07:07:15.447Z,7.01
2023-02-04T07:09:43.111Z,7.06
2023-02-04T07:12:10.788Z,7.03
2023-02-04T07:14:40.891Z,7.02
2023-02-04T07:17:08.482Z,6.98
2023-02-04T07:19:36.365Z,7.13
2023-02-04T07:22:04.142Z,7.09
2023-02-04T07:24:32.343Z,7.22
2023-02-04T07:27:01.718Z,7.16
2023-02-04T07:29:30.213Z,7.20
2023-02-04T07:31:59.649Z,7.02
2023-02-04T07:34:27.634Z,6.99
2023-02-04T07:36:55.522Z,6.80
2023-02-04T07:39:23.243Z,6.81
2023-02-04T07:41:51.078Z,6.67
2023-02-04T07:44:18.731Z,6.65
2023-02-04T07:46:46.322Z,6.65
2023-02-04T07:49:15.501Z,6.61
2023-02-04T07:51:43.120Z,6.71
2023-02-04T07:54:10.988Z,6.70
2023-02-04T07:56:39.901Z,6.67
2023-02-04T07:59:07.474Z,6.76
2023-02-04T08:01:35.179Z,6.94
2023-02-04T08:04:02.897Z,7.07
2023-02-04T08:06:32.232Z,7.19
2023-02-04T08:09:02.337Z,7.41
2023-02-04T08:11:30.050Z,7.47
2023-02-04T08:13:57.702Z,7.49
2023-02-04T08:16:39.260Z,7.62
2023-02-04T08:19:06.891Z,7.96
2023-02-04T08:21:36.381Z,8.13
2023-02-04T08:24:04.173Z,8.36
2023-02-04T08:26:32.010Z,8.41
2023-02-04T08:28:59.592Z,8.42
2023-02-04T08:31:27.347Z,8.42
2023-02-04T08:33:55.049Z,8.36
2023-02-04T08:36:23.079Z,8.46
2023-02-04T08:38:55.480Z,8.38
2023-02-04T08:41:29.821Z,8.48
2023-02-04T08:43:58.095Z,8.68
2023-02-04T08:46:33.345Z,8.70
2023-02-04T08:49:03.043Z,8.76
2023-02-04T08:51:32.993Z,9.02
2023-02-04T08:54:06.007Z,9.15
2023-02-04T08:56:37.711Z,9.15
2023-02-04T08:59:05.636Z,9.05
2023-02-04T09:01:35.094Z,9.12
2023-02-04T09:04:03.848Z,9.31
2023-02-04T09:06:31.438Z,9.16
2023-02-04T09:08:59.011Z,9.13
2023-02-04T09:11:28.002Z,9.22
2023-02-04T09:13:57.318Z,9.47
2023-02-04T09:16:25.379Z,9.32
2023-02-04T09:18:54.956Z,9.46
2023-02-04T09:21:27.758Z,9.43
2023-02-04T09:23:55.520Z,9.12
2023-02-04T09:26:26.673Z,9.10
2023-02-04T09:28:55.879Z,9.06
2023-02-04T09:31:23.599Z,9.21
2023-02-04T09:33:51.316Z,9.31
2023-02-04T09:36:19.055Z,9.23
2023-02-04T09:38:48.108Z,9.35
2023-02-04T09:41:16.039Z,9.30
2023-02-04T09:43:46.240Z,9.24
2023-02-04T09:46:21.372Z,9.10
2023-02-04T09:48:52.906Z,8.94
2023-02-04T09:51:23.923Z,8.96
2023-02-04T09:53:54.045Z,8.50
2023-02-04T09:56:21.939Z,8.57
2023-02-04T09:58:50.764Z,8.52
2023-02-04T10:01:21.665Z,8.36
2023-02-04T10:03:52.363Z,8.17
2023-02-04T10:06:24.379Z,8.11
2023-02-04T10:08:53.150Z,8.06
2023-02-04T10:11:23.453Z,8.09
2023-02-04T10:13:53.753Z,7.95
2023-02-04T10:16:30.746Z,7.50
2023-02-04T10:18:59.767Z,7.64
2023-02-04T10:21:29.827Z,7.68
2023-02-04T10:23:59.046Z,7.36
2023-02-04T10:26:30.806Z,7.64
2023-02-04T10:29:01.957Z,7.89
2023-02-04T10:31:38.484Z,7.79
2023-02-04T10:34:10.758Z,7.84
2023-02-04T10:36:38.797Z,7.99
2023-02-04T10:39:11.421Z,7.83
2023-02-04T10:41:45.490Z,7.85
2023-02-04T10:44:15.672Z,8.16
2023-02-04T10:46:44.730Z,8.49
2023-02-04T10:49:21.474Z,8.81
2023-02-04T10:51:52.783Z,9.21
2023-02-04T10:54:33.964Z,9.29
2023-02-04T10:57:10.940Z,8.52
2023-02-04T10:59:38.657Z,9.21
2023-02-04T11:02:32.217Z,9.11
2023-02-04T11:05:00.273Z,8.75
2023-02-04T11:07:29.256Z,8.67
2023-02-04T11:09:57.122Z,8.34
2023-02-04T11:12:38.658Z,8.72
2023-02-04T11:15:07.732Z,8.75
2023-02-04T11:17:36.825Z,8.46
2023-02-04T11:20:15.753Z,8.58
2023-02-04T11:22:45.389Z,8.59
2023-02-04T11:25:32.357Z,8.46
2023-02-04T11:28:00.438Z,8.21
2023-02-04T11:30:33.926Z,8.20
2023-02-04T11:33:22.167Z,8.60
2023-02-04T11:36:03.056Z,8.74
2023-02-04T11:38:34.120Z,9.27
2023-02-04T11:41:01.915Z,9.44
2023-02-04T11:43:34.745Z,10.03
2023-02-04T11:46:07.864Z,10.18
2023-02-04T11:48:37.445Z,9.71
2023-02-04T11:51:16.034Z,9.92
2023-02-04T11:53:44.472Z,9.77
2023-02-04T11:56:18.928Z,9.24
2023-02-04T11:58:50.584Z,9.46
2023-02-04T12:01:19.193Z,9.14
2023-02-04T12:03:52.930Z,8.53
2023-02-04T12:06:22.991Z,8.33
2023-02-04T12:08:50.963Z,8.57
2023-02-04T12:11:27.276Z,8.51
2023-02-04T12:13:56.386Z,8.47
2023-02-04T12:16:25.422Z,8.65
2023-02-04T12:18:55.714Z,9.10
2023-02-04T12:21:23.791Z,9.27
2023-02-04T12:23:51.381Z,9.45
2023-02-04T12:26:19.257Z,9.33
2023-02-04T12:28:46.874Z,9.52
2023-02-04T12:31:15.036Z,9.81
2023-02-04T12:33:42.668Z,9.87
2023-02-04T12:36:11.696Z,10.07
2023-02-04T12:38:39.235Z,10.17
2023-02-04T12:41:06.892Z,9.65
2023-02-04T12:43:39.639Z,9.81
2023-02-04T12:46:07.495Z,10.22
2023-02-04T12:48:35.205Z,10.33
2023-02-04T12:51:02.841Z,10.48
2023-02-04T12:53:33.301Z,9.75
2023-02-04T12:56:01.012Z,9.06
2023-02-04T12:58:28.886Z,9.53
2023-02-04T13:00:56.896Z,9.47
2023-02-04T13:03:25.611Z,9.48
2023-02-04T13:05:53.442Z,9.45
2023-02-04T13:08:21.233Z,9.60
2023-02-04T13:10:52.301Z,9.22
2023-02-04T13:13:20.334Z,9.06
2023-02-04T13:15:50.451Z,9.21
2023-02-04T13:18:18.719Z,9.16
2023-02-04T13:20:47.062Z,9.26
2023-02-04T13:23:15.792Z,8.95
2023-02-04T13:25:44.570Z,9.40
2023-02-04T13:28:14.056Z,9.47
2023-02-04T13:30:42.505Z,9.20
2023-02-04T13:33:10.331Z,9.37
2023-02-04T13:35:51.895Z,9.59
2023-02-04T13:38:20.965Z,9.18
2023-02-04T13:40:50.971Z,9.12
2023-02-04T13:43:20.578Z,9.50
2023-02-04T13:45:49.070Z,9.57
2023-02-04T13:48:17.646Z,9.33
2023-02-04T13:50:45.403Z,8.83
2023-02-04T13:53:13.238Z,9.07
2023-02-04T13:55:40.912Z,9.41
2023-02-04T13:58:10.848Z,9.54
2023-02-04T14:00:39.749Z,9.47
2023-02-04T14:03:11.575Z,9.32
2023-02-04T14:05:39.848Z,9.30
2023-02-04T14:08:07.662Z,9.17
2023-02-04T14:10:38.186Z,9.02
2023-02-04T14:13:06.654Z,9.04
2023-02-04T14:15:37.589Z,9.05
2023-02-04T14:18:07.051Z,9.10
2023-02-04T14:20:35.787Z,8.79
2023-02-04T14:23:06.625Z,8.93
2023-02-04T14:25:34.371Z,8.98
2023-02-04T14:28:02.423Z,8.85
2023-02-04T14:30:31.136Z,8.76
2023-02-04T14:33:01.631Z,8.94
2023-02-04T14:35:35.644Z,8.85
2023-02-04T14:38:03.438Z,8.95
2023-02-04T14:40:31.639Z,9.02
2023-02-04T14:43:01.842Z,8.94
2023-02-04T14:45:30.193Z,8.92
2023-02-04T14:48:01.438Z,8.96
2023-02-04T14:50:33.097Z,8.96
2023-02-04T14:53:01.457Z,8.88
2023-02-04T14:55:29.098Z,8.83
2023-02-04T14:58:03.037Z,8.58
2023-02-04T15:00:31.220Z,8.42
2023-02-04T15:02:59.464Z,8.23
2023-02-04T15:05:27.227Z,8.45
2023-02-04T15:07:56.384Z,8.65
2023-02-04T15:13:23.804Z,8.59
2023-02-04T15:15:51.469Z,8.43
2023-02-04T15:18:20.042Z,8.47
2023-02-04T15:20:49.429Z,8.69
2023-02-04T15:23:18.558Z,8.49
2023-02-04T15:25:47.112Z,8.46
2023-02-04T15:28:15.025Z,8.62
2023-02-04T15:30:42.936Z,8.83
2023-02-04T15:33:12.986Z,8.66
2023-02-04T15:35:40.629Z,8.67
2023-02-04T15:38:08.173Z,8.40
2023-02-04T15:40:37.346Z,8.40
2023-02-04T15:43:04.972Z,8.32
2023-02-04T15:45:32.615Z,8.22
2023-02-04T15:48:02.841Z,8.08
2023-02-04T15:50:33.706Z,7.92
2023-02-04T15:53:01.537Z,7.81
2023-02-04T15:55:29.830Z,7.80
2023-02-04T15:57:59.776Z,7.76
2023-02-04T16:00:27.567Z,7.60
2023-02-04T16:02:55.353Z,7.50
2023-02-04T16:05:23.241Z,7.48
2023-02-04T16:07:50.776Z,7.32
2023-02-04T16:10:22.357Z,7.26
2023-02-04T16:12:51.430Z,7.28
2023-02-04T16:15:20.418Z,7.16
2023-02-04T16:17:48.323Z,7.10
2023-02-04T16:20:15.938Z,7.05
2023-02-04T16:22:43.756Z,6.93
2023-02-04T16:25:11.733Z,6.82
2023-02-04T16:27:39.408Z,6.79
2023-02-04T16:30:08.049Z,6.86
2023-02-04T16:32:36.987Z,6.80
2023-02-04T16:35:07.704Z,6.89
2023-02-04T16:37:37.601Z,6.88
2023-02-04T16:40:07.976Z,6.79
2023-02-04T16:42:36.616Z,6.78
2023-02-04T16:45:04.657Z,6.80
2023-02-04T16:47:32.598Z,6.85
2023-02-04T16:50:01.618Z,6.79
2023-02-04T16:52:29.581Z,6.80
2023-02-04T16:54:57.255Z,6.76
2023-02-04T16:57:25.014Z,6.71
2023-02-04T16:59:52.610Z,6.66
2023-02-04T17:02:21.018Z,6.65
2023-02-04T17:04:49.695Z,6.76
2023-02-04T17:07:18.995Z,6.69
2023-02-04T17:09:46.613Z,6.67
2023-02-04T17:12:14.165Z,6.71
2023-02-04T17:14:41.737Z,6.64
2023-02-04T17:17:09.472Z,6.63
2023-02-04T17:19:37.326Z,6.66
2023-02-04T17:22:05.333Z,6.64
2023-02-04T17:24:36.170Z,6.61
2023-02-04T17:27:03.711Z,6.51
2023-02-04T17:29:32.606Z,6.49
2023-02-04T17:32:00.469Z,6.53
2023-02-04T17:34:30.926Z,6.49
2023-02-04T17:36:58.735Z,6.46
2023-02-04T17:39:27.332Z,6.46
2023-02-04T17:42:01.882Z,6.46
2023-02-04T17:44:30.120Z,6.41
2023-02-04T17:46:58.949Z,6.44
2023-02-04T17:49:26.870Z,6.42
2023-02-04T17:51:54.639Z,6.40
2023-02-04T17:54:22.256Z,6.38
2023-02-04T17:56:51.140Z,6.29
2023-02-04T17:59:20.183Z,6.28
2023-02-04T18:01:48.101Z,6.40
2023-02-04T18:04:16.187Z,6.29
2023-02-04T18:06:43.786Z,6.29
2023-02-04T18:09:15.750Z,6.31
2023-02-04T18:11:45.082Z,6.23
2023-02-04T18:14:16.806Z,6.14
2023-02-04T18:16:46.326Z,6.05
2023-02-04T18:19:20.444Z,5.93
2023-02-04T18:21:51.156Z,5.90
2023-02-04T18:24:20.842Z,5.91
2023-02-04T18:26:50.391Z,5.91
2023-02-04T18:29:29.783Z,6.11
2023-02-04T18:32:02.594Z,6.07
2023-02-04T18:34:36.204Z,6.09
2023-02-04T18:37:24.735Z,6.05
2023-02-04T18:39:53.299Z,6.02
2023-02-04T18:42:25.696Z,5.92
2023-02-04T18:44:54.992Z,5.91
2023-02-04T18:47:31.473Z,5.89
2023-02-04T18:50:01.831Z,5.78
2023-02-04T18:52:41.204Z,5.76
2023-02-04T18:55:23.424Z,5.82
2023-02-04T18:57:51.139Z,5.79
2023-02-04T19:00:26.100Z,5.82
2023-02-04T19:02:56.971Z,5.81
2023-02-04T19:05:29.816Z,5.78
2023-02-04T19:08:24.611Z,5.85
2023-02-04T19:10:54.417Z,5.99
2023-02-04T19:13:25.619Z,5.97
2023-02-04T19:16:02.159Z,5.80
2023-02-04T19:18:37.671Z,5.88
2023-02-04T19:21:20.393Z,5.79
2023-02-04T19:23:48.555Z,5.83
2023-02-04T19:26:36.527Z,5.90
2023-02-04T19:29:43.330Z,5.92
2023-02-04T19:32:28.370Z,5.85
2023-02-04T19:34:59.870Z,5.75
2023-02-04T19:37:33.187Z,5.71
2023-02-04T19:40:02.590Z,5.72
2023-02-04T19:42:36.052Z,5.68
2023-02-04T19:45:14.933Z,5.70
2023-02-04T19:47:43.956Z,5.78
2023-02-04T19:50:23.746Z,5.84
2023-02-04T19:52:53.685Z,5.79
2023-02-04T19:55:31.256Z,5.75
2023-02-04T19:58:02.660Z,5.80
2023-02-04T20:00:43.034Z,5.63
2023-02-04T20:03:20.901Z,5.57
2023-02-04T20:05:50.080Z,5.51
2023-02-04T20:08:44.116Z,5.64
2023-02-04T20:11:41.565Z,5.64
2023-02-04T20:14:23.979Z,5.64
2023-02-04T20:16:53.357Z,5.62
2023-02-04T20:19:26.632Z,5.59
2023-02-04T20:22:05.778Z,5.57
2023-02-04T20:24:36.530Z,5.56
2023-02-04T20:27:19.462Z,5.54
2023-02-04T20:29:47.381Z,5.46
2023-02-04T20:32:18.508Z,5.57
2023-02-04T20:34:48.093Z,5.46
2023-02-04T20:37:29.205Z,5.53
2023-02-04T20:39:56.988Z,5.56
2023-02-04T20:42:40.317Z,5.72
2023-02-04T20:45:33.411Z,5.66
2023-02-04T20:48:25.350Z,5.58
2023-02-04T20:50:54.287Z,5.50
2023-02-04T20:53:26.653Z,5.49
2023-02-04T20:56:03.412Z,5.57
2023-02-04T20:58:37.213Z,5.57
2023-02-04T21:01:20.158Z,5.58
2023-02-04T21:03:50.234Z,5.59
2023-02-04T21:06:24.088Z,5.50
2023-02-04T21:08:54.914Z,5.51
2023-02-04T21:11:23.164Z,5.45
2023-02-04T21:13:52.503Z,5.33
2023-02-04T21:16:20.151Z,5.12
2023-02-04T21:18:49.034Z,5.11
2023-02-04T21:21:17.065Z,5.00
2023-02-04T21:23:44.733Z,4.83
2023-02-04T21:26:13.721Z,4.86
2023-02-04T21:28:41.514Z,4.89
2023-02-04T21:31:11.714Z,5.01
2023-02-04T21:33:39.336Z,5.09
2023-02-04T21:36:07.940Z,4.91
2023-02-04T21:38:35.513Z,4.92
2023-02-04T21:41:03.242Z,4.85
2023-02-04T21:43:32.224Z,4.95
2023-02-04T21:46:00.389Z,4.94
2023-02-04T21:48:28.159Z,4.84
2023-02-04T21:50:56.176Z,5.03
2023-02-04T21:53:23.956Z,5.02
2023-02-04T21:55:51.604Z,4.94
2023-02-04T21:58:19.297Z,5.04
2023-02-04T22:00:48.223Z,4.90
2023-02-04T22:03:17.290Z,4.86
2023-02-04T22:05:46.693Z,4.85
2023-02-04T22:08:17.884Z,4.92
2023-02-04T22:10:46.124Z,4.85
2023-02-04T22:13:14.887Z,4.81
2023-02-04T22:15:44.703Z,4.85
2023-02-04T22:18:20.033Z,4.90
2023-02-04T22:20:49.521Z,4.96
2023-02-04T22:23:17.426Z,4.78
2023-02-04T22:25:48.150Z,4.92
2023-02-04T22:28:18.365Z,4.98
2023-02-04T22:30:48.560Z,4.77
2023-02-04T22:33:20.448Z,4.75
2023-02-04T22:35:52.821Z,4.80
2023-02-04T22:38:21.990Z,4.71
2023-02-04T22:40:52.382Z,4.68
2023-02-04T22:43:19.941Z,4.73
2023-02-04T22:45:48.573Z,4.88
2023-02-04T22:48:18.774Z,4.90
2023-02-04T22:50:48.024Z,4.74
2023-02-04T22:53:15.761Z,4.80
2023-02-04T22:55:44.522Z,4.69
2023-02-04T22:58:14.729Z,4.65
2023-02-04T23:00:42.876Z,4.63
2023-02-04T23:03:10.527Z,4.59
2023-02-04T23:05:40.147Z,4.59
2023-02-04T23:08:08.165Z,4.56
2023-02-04T23:10:37.572Z,4.46
2023-02-04T23:13:06.504Z,4.41
2023-02-04T23:15:34.401Z,4.45
2023-02-04T23:18:02.289Z,4.35
2023-02-04T23:20:30.335Z,4.26
2023-02-04T23:22:59.279Z,4.28
2023-02-04T23:25:27.356Z,4.18
2023-02-04T23:27:55.003Z,4.06
2023-02-04T23:30:24.536Z,3.94
2023-02-04T23:32:54.774Z,3.90
2023-02-04T23:35:23.941Z,3.95
2023-02-04T23:37:53.139Z,4.04
2023-02-04T23:40:22.245Z,4.10
2023-02-04T23:42:49.959Z,4.15
2023-02-04T23:45:18.378Z,4.11
2023-02-04T23:47:46.000Z,4.18
2023-02-04T23:50:13.724Z,4.27
2023-02-04T23:52:41.469Z,4.18
2023-02-04T23:55:09.373Z,4.21
2023-02-04T23:57:38.922Z,4.30
